Time;durP1;ratioP1;P1;durP2;ratioP2;P2;SDS_P1;SDS_P2;PMS_P1;PMS_P2;Temp;Humidity;BMP_temperature;BMP_pressure;BME280_temperature;BME280_humidity;BME280_pressure;Samples;Min_cycle;Max_cycle;Signal;HPM_P1;HPM_P2
2022/09/02 00:01:44;;;;;;;6.47;1.55;;;;;;;19.87;88.97;101207.28;7375175;19;20093;-65
2022/09/02 00:04:30;;;;;;;18.13;9.32;;;;;;;19.81;89.02;101213.44;7379039;19;20123;-65
2022/09/02 00:06:57;;;;;;;6.82;2.63;;;;;;;19.82;89.38;101212.41;7384784;19;20014;-66
2022/09/02 00:09:25;;;;;;;6.90;2.88;;;;;;;19.80;87.71;101214.47;7388792;19;20339;-66
2022/09/02 00:11:53;;;;;;;7.97;2.67;;;;;;;19.81;87.66;101210.75;7387811;19;20010;-65
2022/09/02 00:14:32;;;;;;;6.28;2.95;;;;;;;19.77;87.04;101196.19;7388796;19;20353;-66
2022/09/02 00:16:59;;;;;;;5.85;2.58;;;;;;;19.75;87.17;101197.41;7389953;19;20025;-66
2022/09/02 00:19:28;;;;;;;12.73;7.05;;;;;;;19.73;87.77;101194.13;7385352;19;20014;-68
2022/09/02 00:21:56;;;;;;;5.13;2.47;;;;;;;19.69;87.71;101193.72;7387369;19;20104;-66
2022/09/02 00:24:23;;;;;;;4.85;2.13;;;;;;;19.68;87.56;101200.06;7384170;19;20010;-66
2022/09/02 00:26:51;;;;;;;5.75;1.73;;;;;;;19.67;87.60;101189.59;7388041;19;20018;-66
2022/09/02 00:29:23;;;;;;;6.40;1.65;;;;;;;19.62;87.30;101191.03;7385447;19;20026;-66
2022/09/02 00:31:50;;;;;;;4.93;1.67;;;;;;;19.60;87.29;101184.25;7386419;19;20036;-65
2022/09/02 00:34:17;;;;;;;10.50;6.20;;;;;;;19.56;87.11;101183.81;7384627;19;20019;-65
2022/09/02 00:36:46;;;;;;;4.93;1.98;;;;;;;19.55;87.43;101181.38;7387589;19;20550;-65
2022/09/02 00:39:13;;;;;;;7.65;1.63;;;;;;;19.53;86.63;101186.91;7383156;19;20309;-65
2022/09/02 00:41:42;;;;;;;6.63;1.60;;;;;;;19.50;86.73;101181.97;7385276;19;20013;-65
2022/09/02 00:44:12;;;;;;;4.82;2.08;;;;;;;19.49;87.15;101172.31;7386499;19;20018;-67
2022/09/02 00:46:42;;;;;;;4.85;2.10;;;;;;;19.51;87.59;101177.44;7387535;19;20404;-65
2022/09/02 00:49:25;;;;;;;12.38;2.00;;;;;;;19.51;87.91;101167.59;7383301;19;20357;-65
2022/09/02 00:52:01;;;;;;;6.22;3.08;;;;;;;19.52;88.39;101163.91;7385537;19;20014;-65
2022/09/02 00:54:31;;;;;;;6.18;2.40;;;;;;;19.51;87.83;101162.25;7387639;19;20010;-67
2022/09/02 00:57:09;;;;;;;10.20;2.38;;;;;;;19.53;87.67;101168.22;7382685;19;20018;-67
2022/09/02 00:59:47;;;;;;;7.60;1.83;;;;;;;19.55;86.40;101158.16;7385858;19;20047;-65
2022/09/02 01:02:14;;;;;;;8.75;1.67;;;;;;;19.54;86.50;101153.84;7385800;19;20325;-67
2022/09/02 01:04:45;;;;;;;5.30;2.15;;;;;;;19.54;86.18;101156.53;7378380;19;20553;-65
2022/09/02 01:07:13;;;;;;;8.07;2.30;;;;;;;19.57;86.82;101157.94;7387743;19;20495;-65
2022/09/02 01:09:40;;;;;;;6.30;1.95;;;;;;;19.58;86.32;101156.94;7388675;19;20466;-65
2022/09/02 01:12:11;;;;;;;5.72;1.60;;;;;;;19.57;86.26;101158.78;7386183;19;20022;-65
2022/09/02 01:14:38;;;;;;;5.95;1.33;;;;;;;19.60;85.58;101160.22;7386036;19;20010;-67
2022/09/02 01:17:06;;;;;;;7.80;1.25;;;;;;;19.58;85.27;101160.41;7386051;19;20069;-66
2022/09/02 01:19:39;;;;;;;4.72;1.42;;;;;;;19.56;85.51;101154.44;7381020;19;20011;-66
2022/09/02 01:22:17;;;;;;;6.25;1.52;;;;;;;19.57;85.93;101156.09;7386398;19;20018;-65
2022/09/02 01:24:44;;;;;;;3.97;1.45;;;;;;;19.54;86.10;101145.84;7384872;19;20073;-64
2022/09/02 01:27:20;;;;;;;7.85;1.70;;;;;;;19.49;87.00;101144.81;7384627;19;20015;-65
2022/09/02 01:29:58;;;;;;;5.85;1.50;;;;;;;19.48;88.33;101148.50;7384634;19;20675;-65
2022/09/02 01:32:33;;;;;;;6.72;1.23;;;;;;;19.44;88.63;101140.06;7384888;19;20022;-65
2022/09/02 01:35:00;;;;;;;9.70;1.42;;;;;;;19.44;88.76;101136.56;7384417;19;20571;-65
2022/09/02 01:37:27;;;;;;;6.18;1.80;;;;;;;19.42;89.27;101130.56;7387260;19;20170;-66
2022/09/02 01:40:00;;;;;;;9.25;1.83;;;;;;;19.45;88.75;101130.22;7384052;19;20025;-66
2022/09/02 01:42:28;;;;;;;4.93;1.60;;;;;;;19.41;88.08;101123.59;7382441;19;20337;-66
2022/09/02 01:44:55;;;;;;;4.55;1.35;;;;;;;19.39;88.72;101126.47;7382728;19;20494;-65
2022/09/02 01:47:25;;;;;;;7.82;1.27;;;;;;;19.36;88.93;101115.38;7386857;19;20018;-65
2022/09/02 01:49:53;;;;;;;8.60;1.88;;;;;;;19.35;89.01;101117.22;7380855;19;20046;-65
2022/09/02 01:52:23;;;;;;;8.23;1.85;;;;;;;19.30;88.31;101111.66;7384006;19;20026;-66
2022/09/02 01:54:50;;;;;;;7.03;1.27;;;;;;;19.28;88.29;101104.91;7382070;19;20014;-66
2022/09/02 01:57:17;;;;;;;7.45;1.38;;;;;;;19.22;89.05;101096.69;7385024;19;20011;-66
2022/09/02 01:59:45;;;;;;;5.40;0.88;;;;;;;19.15;89.54;101093.16;7384757;19;20019;-65
2022/09/02 02:02:13;;;;;;;6.30;0.90;;;;;;;19.12;90.01;101092.75;7383848;19;20357;-66
2022/09/02 02:04:47;;;;;;;6.38;1.05;;;;;;;19.05;88.78;101099.91;7380940;19;20018;-65
2022/09/02 02:07:19;;;;;;;8.52;1.17;;;;;;;19.00;89.42;101099.69;7382488;19;20023;-65
2022/09/02 02:09:49;;;;;;;4.82;1.00;;;;;;;18.97;89.98;101100.94;7383113;19;20010;-66
2022/09/02 02:12:18;;;;;;;5.47;1.38;;;;;;;18.96;90.64;101096.63;7384834;19;20041;-65
2022/09/02 02:14:45;;;;;;;3.38;0.88;;;;;;;18.99;91.24;101093.56;7384642;19;20014;-66
2022/09/02 02:17:13;;;;;;;4.97;1.02;;;;;;;19.04;91.65;101087.63;7383629;19;20011;-66
2022/09/02 02:19:40;;;;;;;10.00;1.02;;;;;;;19.07;90.27;101079.19;7381117;19;20015;-66
2022/09/02 02:22:10;;;;;;;5.13;1.35;;;;;;;19.06;90.34;101073.03;7383800;19;20025;-65
2022/09/02 02:24:37;;;;;;;4.10;0.88;;;;;;;19.07;90.65;101074.69;7383507;19;20491;-65
2022/09/02 02:27:04;;;;;;;5.45;1.25;;;;;;;19.09;90.80;101077.16;7384981;19;20017;-66
2022/09/02 02:29:31;;;;;;;9.98;1.55;;;;;;;19.09;90.39;101063.81;7377075;19;20014;-64
2022/09/02 02:31:58;;;;;;;7.35;1.20;;;;;;;19.10;91.02;101063.59;7379353;19;20393;-65
2022/09/02 02:34:25;;;;;;;4.10;1.00;;;;;;;19.13;90.41;101073.06;7379279;19;20018;-64
2022/09/02 02:36:51;;;;;;;4.70;1.13;;;;;;;19.13;90.41;101067.72;7384167;19;20021;-65
2022/09/02 02:39:19;;;;;;;5.80;0.90;;;;;;;19.13;91.27;101065.88;7380759;19;20024;-65
2022/09/02 02:41:46;;;;;;;5.03;0.70;;;;;;;19.15;90.03;101069.16;7379581;19;20489;-65
2022/09/02 02:44:13;;;;;;;6.25;1.23;;;;;;;19.15;90.22;101073.66;7378997;19;20150;-65
2022/09/02 02:46:40;;;;;;;10.60;1.27;;;;;;;19.16;90.35;101062.78;7384459;19;20099;-66
2022/09/02 02:49:07;;;;;;;6.88;1.35;;;;;;;19.15;90.15;101065.66;7381596;19;20039;-65
2022/09/02 02:51:34;;;;;;;6.78;1.10;;;;;;;19.14;90.10;101061.38;7381844;19;20015;-66
2022/09/02 02:54:02;;;;;;;8.65;1.45;;;;;;;19.14;89.90;101061.38;7382605;19;20086;-65
2022/09/02 02:56:29;;;;;;;7.60;0.93;;;;;;;19.14;89.56;101054.19;7382150;19;20085;-65
2022/09/02 02:59:00;;;;;;;4.90;0.88;;;;;;;19.17;89.25;101058.28;7381367;19;20019;-66
2022/09/02 03:01:27;;;;;;;3.33;0.77;;;;;;;19.16;89.32;101057.47;7382949;19;20015;-65
2022/09/02 03:03:57;;;;;;;9.70;1.00;;;;;;;19.15;89.51;101060.31;7382345;19;20205;-65
2022/09/02 03:06:24;;;;;;;7.00;1.00;;;;;;;19.14;89.58;101062.19;7380958;19;20018;-65
2022/09/02 03:08:59;;;;;;;11.05;1.02;;;;;;;19.14;89.47;101058.72;7384391;19;20509;-65
2022/09/02 03:11:27;;;;;;;9.07;1.30;;;;;;;19.14;89.99;101053.38;7380836;19;20022;-65
2022/09/02 03:13:54;;;;;;;5.55;0.88;;;;;;;19.13;89.90;101049.06;7382573;19;20146;-65
2022/09/02 03:16:21;;;;;;;6.18;0.75;;;;;;;19.14;89.51;101056.88;7382761;19;20018;-65
2022/09/02 03:18:49;;;;;;;5.75;1.00;;;;;;;19.13;90.08;101049.88;7383571;19;20019;-65
2022/09/02 03:21:17;;;;;;;6.72;2.05;;;;;;;19.13;90.63;101049.06;7380125;19;20309;-66
2022/09/02 03:23:49;;;;;;;5.80;1.23;;;;;;;19.13;91.36;101060.53;7384145;19;20021;-65
2022/09/02 03:26:19;;;;;;;7.38;0.98;;;;;;;19.15;90.25;101052.31;7381427;19;20015;-65
2022/09/02 03:28:47;;;;;;;7.07;1.33;;;;;;;19.14;90.54;101050.69;7381318;19;20018;-66
2022/09/02 03:31:20;;;;;;;6.43;0.80;;;;;;;19.16;89.87;101043.28;7382774;19;20018;-66
2022/09/02 03:33:47;;;;;;;6.30;0.82;;;;;;;19.15;89.64;101047.81;7381120;19;20018;-64
2022/09/02 03:36:30;;;;;;;9.60;3.78;;;;;;;19.15;89.77;101046.97;7377534;19;20015;-64
2022/09/02 03:38:58;;;;;;;8.98;2.15;;;;;;;19.15;90.35;101042.47;7380360;19;20292;-64
2022/09/02 03:41:24;;;;;;;8.50;1.00;;;;;;;19.18;89.38;101044.75;7378915;19;20020;-65
2022/09/02 03:43:51;;;;;;;5.85;0.85;;;;;;;19.13;89.40;101041.88;7379805;19;20017;-66
2022/09/02 03:46:18;;;;;;;5.65;1.05;;;;;;;19.11;89.42;101046.56;7383393;19;20014;-65
2022/09/02 03:48:50;;;;;;;7.97;0.85;;;;;;;19.08;89.69;101036.31;7383564;19;20023;-66
2022/09/02 03:51:18;;;;;;;;;;;;;;;19.07;89.93;101031.19;7378747;19;20595;-66
2022/09/02 03:53:45;;;;;;;4.75;0.90;;;;;;;19.03;90.42;101032.63;7379503;19;19925;-66
2022/09/02 03:56:14;;;;;;;7.97;1.20;;;;;;;19.00;90.62;101027.66;7380255;19;20029;-66
2022/09/02 03:58:44;;;;;;;6.20;0.88;;;;;;;19.01;90.55;101034.66;7380798;19;20025;-65
2022/09/02 04:01:20;;;;;;;8.85;0.90;;;;;;;19.01;90.89;101023.97;7381688;19;20014;-65
2022/09/02 04:03:47;;;;;;;8.48;1.88;;;;;;;19.02;90.90;101021.13;7380252;19;20022;-65
2022/09/02 04:06:17;;;;;;;13.10;1.77;;;;;;;18.99;90.70;101012.72;7375105;19;20192;-66
2022/09/02 04:08:44;;;;;;;8.18;0.68;;;;;;;19.01;90.87;101018.66;7383396;19;20023;-66
2022/09/02 04:11:16;;;;;;;8.55;3.50;;;;;;;19.01;90.72;101013.31;7383025;19;20032;-65
2022/09/02 04:13:47;;;;;;;9.32;1.60;;;;;;;19.02;91.05;101013.13;7382658;19;20027;-66
2022/09/02 04:16:18;;;;;;;5.10;0.77;;;;;;;19.07;90.65;101007.19;7380999;19;20106;-64
2022/09/02 04:18:47;;;;;;;9.10;1.27;;;;;;;19.08;90.80;101006.97;7382580;19;20015;-65
2022/09/02 04:21:15;;;;;;;6.10;0.70;;;;;;;19.09;90.39;101003.28;7378836;19;20375;-65
2022/09/02 04:23:42;;;;;;;7.25;0.85;;;;;;;19.09;90.54;101000.63;7378921;19;20396;-66
2022/09/02 04:26:12;;;;;;;3.55;0.75;;;;;;;19.12;90.51;100999.38;7379613;19;20915;-66
2022/09/02 04:28:39;;;;;;;9.45;3.00;;;;;;;19.12;90.41;101002.88;7377809;19;20557;-65
2022/09/02 04:31:08;;;;;;;8.73;1.40;;;;;;;19.13;91.17;100996.53;7379743;19;20029;-65
2022/09/02 04:33:36;;;;;;;4.75;1.20;;;;;;;19.15;90.89;100988.28;7378709;19;20206;-66
2022/09/02 04:36:16;;;;;;;5.28;1.13;;;;;;;19.13;90.26;100985.84;7376954;19;20018;-65
2022/09/02 04:38:56;;;;;;;9.77;0.90;;;;;;;19.18;89.71;100990.56;7378573;19;20034;-65
2022/09/02 04:41:26;;;;;;;8.73;0.85;;;;;;;19.15;90.07;100990.97;7380277;19;20011;-65
2022/09/02 04:43:55;;;;;;;4.25;0.90;;;;;;;19.14;90.21;100992.00;7375365;19;20475;-65
2022/09/02 04:46:23;;;;;;;6.30;1.08;;;;;;;19.13;90.46;100993.84;7380462;19;20041;-66
2022/09/02 04:49:01;;;;;;;7.82;1.50;;;;;;;19.12;90.52;101000.19;7381417;19;20015;-65
2022/09/02 04:51:29;;;;;;;8.35;0.90;;;;;;;19.12;90.17;100986.03;7374833;19;20373;-65
2022/09/02 04:53:56;;;;;;;5.60;1.17;;;;;;;19.10;90.85;100991.56;7384351;19;20034;-65
2022/09/02 04:56:31;;;;;;;7.63;1.10;;;;;;;19.11;90.70;100989.72;7386201;19;20010;-66
2022/09/02 04:58:59;;;;;;;5.43;0.88;;;;;;;19.10;90.77;100985.41;7385177;19;20019;-65
2022/09/02 05:01:33;;;;;;;6.63;0.90;;;;;;;19.09;90.90;100981.94;7385933;19;20483;-66
2022/09/02 05:04:01;;;;;;;12.13;2.35;;;;;;;19.10;90.77;100983.56;7384897;19;20022;-64
2022/09/02 05:06:28;;;;;;;6.35;1.27;;;;;;;19.10;91.83;100982.75;7385012;19;20328;-65
2022/09/02 05:08:57;;;;;;;8.38;0.93;;;;;;;19.12;91.02;100988.72;7386399;19;20029;-66
2022/09/02 05:11:28;;;;;;;9.27;0.90;;;;;;;19.12;90.81;100981.53;7383592;19;20039;-66
2022/09/02 05:13:58;;;;;;;5.22;0.80;;;;;;;19.14;90.79;100986.66;7385457;19;20110;-66
2022/09/02 05:16:31;;;;;;;8.43;1.40;;;;;;;19.11;90.65;100985.22;7386674;19;20573;-65
2022/09/02 05:18:58;;;;;;;12.48;1.10;;;;;;;19.15;90.11;100986.44;7386069;19;20026;-65
2022/09/02 05:21:25;;;;;;;10.25;1.67;;;;;;;19.12;90.29;100988.72;7386637;19;20018;-65
2022/09/02 05:23:52;;;;;;;9.68;1.33;;;;;;;19.07;90.50;100994.66;7387644;19;20340;-65
2022/09/02 05:26:21;;;;;;;8.68;1.20;;;;;;;19.04;90.87;100994.25;7386508;19;20499;-67
2022/09/02 05:28:48;;;;;;;8.48;1.10;;;;;;;19.06;90.75;100995.69;7386932;19;20086;-64
2022/09/02 05:31:18;;;;;;;7.13;1.02;;;;;;;19.05;90.80;101001.22;7384360;19;20021;-66
2022/09/02 05:33:45;;;;;;;7.43;1.02;;;;;;;18.97;91.04;100990.75;7382378;19;20014;-65
2022/09/02 05:36:15;;;;;;;10.98;1.45;;;;;;;18.95;91.54;100982.94;7382685;19;20017;-65
2022/09/02 05:38:43;;;;;;;8.25;1.98;;;;;;;18.95;91.82;100987.44;7384631;19;20385;-65
2022/09/02 05:41:16;;;;;;;6.22;1.05;;;;;;;18.99;92.35;100988.72;7385729;19;20037;-66
2022/09/02 05:43:43;;;;;;;;;;;;;;;19.02;92.13;100994.44;7383149;19;20025;-64
2022/09/02 05:46:16;;;;;;;6.60;1.10;;;;;;;19.02;91.81;100993.63;7381943;19;20348;-64
2022/09/02 05:51:30;;;;;;;5.00;1.45;;;;;;;19.04;92.13;100987.06;7384392;19;20015;-64
2022/09/02 05:53:59;;;;;;;10.40;1.70;;;;;;;19.05;91.88;100987.88;7386668;19;20321;-64
2022/09/02 05:56:26;;;;;;;7.63;1.83;;;;;;;19.04;92.22;100992.41;7386846;19;20019;-65
2022/09/02 05:58:57;;;;;;;7.13;1.23;;;;;;;19.05;92.28;100987.88;7384378;19;20016;-65
2022/09/02 06:01:27;;;;;;;8.43;1.10;;;;;;;19.06;91.89;100985.00;7385518;19;20186;-65
2022/09/02 06:03:54;;;;;;;9.65;1.52;;;;;;;19.07;91.58;100985.84;7381251;19;20033;-66
2022/09/02 06:06:22;;;;;;;11.75;1.77;;;;;;;19.04;91.91;100981.75;7377672;19;20022;-66
2022/09/02 06:08:50;;;;;;;9.20;1.40;;;;;;;19.03;92.18;100977.44;7384153;19;20019;-66
2022/09/02 06:11:17;;;;;;;7.10;1.30;;;;;;;19.04;91.99;100975.59;7385765;19;20035;-64
2022/09/02 06:13:45;;;;;;;7.30;1.30;;;;;;;19.05;91.89;100985.19;7382486;19;20021;-64
2022/09/02 06:16:16;;;;;;;6.38;1.23;;;;;;;19.05;91.83;100983.34;7382693;19;20360;-65
2022/09/02 06:18:46;;;;;;;8.95;1.40;;;;;;;19.07;91.67;100981.31;7384629;19;20014;-65
2022/09/02 06:21:14;;;;;;;8.75;1.30;;;;;;;19.05;91.93;100980.69;7381310;19;20422;-66
2022/09/02 06:23:42;;;;;;;7.82;1.25;;;;;;;19.04;91.42;100984.41;7381910;19;20030;-65
2022/09/02 06:26:11;;;;;;;11.02;1.45;;;;;;;19.03;91.86;100981.94;7385467;19;20443;-65
2022/09/02 06:28:38;;;;;;;14.60;1.20;;;;;;;19.01;91.98;100978.66;7385429;19;20494;-66
2022/09/02 06:31:17;;;;;;;8.05;1.73;;;;;;;19.02;91.64;100978.44;7383288;19;20006;-66
2022/09/02 06:33:46;;;;;;;9.63;1.33;;;;;;;19.00;91.97;100964.47;7382408;19;20010;-66
2022/09/02 06:36:16;;;;;;;13.05;2.10;;;;;;;19.02;91.47;100965.09;7379236;19;20007;-66
2022/09/02 06:38:47;;;;;;;13.13;2.10;;;;;;;19.03;91.45;100960.59;7383896;19;20018;-65
2022/09/02 06:41:16;;;;;;;7.32;1.70;;;;;;;19.03;90.96;100964.09;7384686;19;20022;-66
2022/09/02 06:43:44;;;;;;;13.52;1.60;;;;;;;19.00;91.04;100953.81;7382534;19;20018;-66
2022/09/02 06:46:17;;;;;;;8.15;1.30;;;;;;;18.98;91.65;100952.38;7378821;19;20018;-65
2022/09/02 06:48:45;;;;;;;8.82;1.83;;;;;;;18.98;91.58;100950.53;7383221;19;20049;-66
2022/09/02 06:51:37;;;;;;;6.88;1.30;;;;;;;18.99;92.09;100946.03;7380319;19;20022;-65
2022/09/02 06:54:07;;;;;;;4.55;1.63;;;;;;;19.02;91.43;100957.09;7381203;19;20729;-65
2022/09/02 06:56:35;;;;;;;6.47;1.25;;;;;;;19.08;90.93;100953.63;7385117;19;20018;-65
2022/09/02 06:59:07;;;;;;;6.75;1.75;;;;;;;19.10;91.13;100950.72;7379012;19;20050;-65
2022/09/02 07:01:35;;;;;;;10.82;1.52;;;;;;;19.11;91.22;100945.19;7382480;19;20018;-66
2022/09/02 07:06:52;;;;;;;10.38;1.80;;;;;;;19.07;91.28;100945.81;7382090;19;20019;-66
2022/09/02 07:09:29;;;;;;;11.73;2.80;;;;;;;19.06;91.40;100947.66;7382963;19;20025;-65
2022/09/02 07:12:02;;;;;;;8.70;2.25;;;;;;;19.08;91.28;100940.28;7381893;19;20010;-65
2022/09/02 07:14:36;;;;;;;11.13;1.77;;;;;;;19.08;91.63;100940.28;7381263;19;20519;-65
2022/09/02 07:17:02;;;;;;;12.18;1.98;;;;;;;19.10;91.25;100940.06;7379074;19;20025;-65
2022/09/02 07:19:29;;;;;;;8.55;1.70;;;;;;;19.15;90.72;100932.25;7377595;19;20026;-65
2022/09/02 07:21:56;;;;;;;5.85;1.67;;;;;;;19.17;91.21;100932.88;7382725;19;20029;-65
2022/09/02 07:24:23;;;;;;;8.18;1.90;;;;;;;19.17;91.09;100923.03;7383491;19;20689;-65
2022/09/02 07:26:51;;;;;;;9.32;1.83;;;;;;;19.25;90.63;100930.00;7384963;19;20443;-64
2022/09/02 07:29:21;;;;;;;10.27;1.80;;;;;;;19.25;90.10;100924.66;7382205;19;20019;-65
2022/09/02 07:31:48;;;;;;;11.02;2.33;;;;;;;19.24;90.42;100923.03;7383756;19;20022;-65
2022/09/02 07:34:17;;;;;;;7.53;1.83;;;;;;;19.25;90.46;100930.00;7378416;19;20019;-65
2022/09/02 07:36:45;;;;;;;10.75;2.30;;;;;;;19.30;90.42;100924.06;7378252;19;20029;-65
2022/09/02 07:39:13;;;;;;;31.20;14.57;;;;;;;19.34;90.35;100919.94;7380588;19;20030;-64
2022/09/02 07:41:43;;;;;;;10.10;2.40;;;;;;;19.41;91.17;100928.75;7380751;19;20022;-65
2022/09/02 07:44:11;;;;;;;6.10;2.33;;;;;;;19.46;90.16;100929.78;7381095;19;20116;-64
2022/09/02 07:46:38;;;;;;;11.60;2.60;;;;;;;19.51;89.77;100921.16;7376802;19;20026;-65
2022/09/02 07:49:08;;;;;;;12.00;2.47;;;;;;;19.53;89.52;100924.44;7376215;19;20542;-65
2022/09/02 07:51:38;;;;;;;12.63;2.55;;;;;;;19.57;89.60;100925.66;7379275;19;20376;-65
2022/09/02 07:54:07;;;;;;;13.85;2.10;;;;;;;19.64;89.56;100923.81;7378605;19;20432;-66
2022/09/02 07:56:34;;;;;;;10.85;1.60;;;;;;;19.70;87.74;100925.66;7382475;19;20467;-65
2022/09/02 07:59:01;;;;;;;8.60;1.60;;;;;;;19.74;87.57;100923.38;7380903;19;20328;-66
2022/09/02 08:01:29;;;;;;;9.88;1.95;;;;;;;19.72;87.76;100920.91;7382816;19;20020;-64
2022/09/02 08:03:57;;;;;;;5.60;1.90;;;;;;;19.69;88.13;100921.34;7382006;19;20591;-65
2022/09/02 08:06:30;;;;;;;8.95;1.92;;;;;;;19.68;88.38;100918.88;7381467;19;20011;-65
2022/09/02 08:09:03;;;;;;;8.43;2.15;;;;;;;19.70;88.83;100919.50;7382250;19;20328;-65
2022/09/02 08:11:31;;;;;;;7.50;1.65;;;;;;;19.74;89.22;100910.84;7379924;19;20022;-65
2022/09/02 08:13:59;;;;;;;8.95;2.00;;;;;;;19.78;88.47;100914.72;7375252;19;20444;-66
2022/09/02 08:16:27;;;;;;;5.70;1.48;;;;;;;19.82;88.52;100912.44;7378232;19;20014;-66
2022/09/02 08:18:54;;;;;;;10.32;1.85;;;;;;;19.86;88.84;100911.81;7381817;19;20010;-67
2022/09/02 08:21:21;;;;;;;13.93;2.55;;;;;;;19.89;89.22;100914.06;7377165;19;20245;-66
2022/09/02 08:23:49;;;;;;;13.48;2.15;;;;;;;19.92;89.09;100907.47;7381391;19;20020;-65
2022/09/02 08:26:17;;;;;;;8.95;1.95;;;;;;;19.98;89.02;100907.44;7379843;19;20034;-66
2022/09/02 08:28:44;;;;;;;8.00;2.30;;;;;;;20.04;87.86;100905.78;7387409;19;20015;-65
2022/09/02 08:31:11;;;;;;;6.28;1.92;;;;;;;20.06;87.35;100909.88;7387351;19;20018;-65
2022/09/02 08:33:38;;;;;;;8.48;3.15;;;;;;;20.07;88.04;100905.34;7389076;19;20340;-65
2022/09/02 08:36:10;;;;;;;6.38;2.28;;;;;;;20.09;88.09;100900.63;7383241;19;20010;-66
2022/09/02 08:38:37;;;;;;;10.27;2.58;;;;;;;20.26;92.53;100903.63;7385479;19;20070;-65
2022/09/02 08:41:32;;;;;;;9.10;2.22;;;;;;;20.24;88.87;100906.50;7387955;19;20028;-65
2022/09/02 08:44:00;;;;;;;10.48;5.68;;;;;;;20.22;87.61;100910.41;7386457;19;20010;-65
2022/09/02 08:46:31;;;;;;;10.82;2.65;;;;;;;20.21;88.01;100906.13;7385753;19;20498;-65
2022/09/02 08:49:03;;;;;;;9.50;2.30;;;;;;;20.22;87.31;100905.06;7381833;19;20085;-66
2022/09/02 08:51:34;;;;;;;7.57;3.80;;;;;;;20.22;87.70;100910.41;7386412;19;20021;-67
2022/09/02 08:54:21;;;;;;;11.70;2.45;;;;;;;20.23;87.75;100910.19;7385723;19;20011;-67
2022/09/02 08:56:50;;;;;;;7.10;3.05;;;;;;;20.26;87.59;100911.66;7386473;19;20858;-66
2022/09/02 08:59:21;;;;;;;10.93;3.83;;;;;;;20.27;87.81;100908.75;7385614;19;20018;-66
2022/09/02 09:02:27;;;;;;;10.23;2.10;;;;;;;20.32;87.14;100918.81;7386888;19;20018;-65
2022/09/02 09:05:24;;;;;;;24.17;2.53;;;;;;;20.34;86.60;100922.09;7382138;19;20281;-67
2022/09/02 09:08:01;;;;;;;24.75;12.45;;;;;;;20.39;85.89;100922.28;7387018;19;20032;-66
2022/09/02 09:10:37;;;;;;;14.00;3.47;;;;;;;20.44;84.76;100923.28;7389103;19;20038;-66
2022/09/02 09:13:45;;;;;;;9.27;2.00;;;;;;;20.47;85.05;100905.97;7387493;19;20070;-65
2022/09/02 09:16:33;;;;;;;9.63;2.00;;;;;;;20.52;85.07;100916.84;7379787;19;20018;-65
2022/09/02 09:19:13;;;;;;;13.25;2.22;;;;;;;20.54;85.43;100921.97;7379241;19;21049;-66
2022/09/02 09:21:42;;;;;;;10.18;2.30;;;;;;;20.53;85.47;100915.81;7387952;19;20035;-66
2022/09/02 09:24:25;;;;;;;6.10;1.75;;;;;;;20.59;85.24;100914.13;7386373;19;20018;-65
2022/09/02 09:26:54;;;;;;;10.40;2.10;;;;;;;20.63;84.99;100904.63;7386353;19;20014;-67
2022/09/02 09:29:21;;;;;;;6.65;1.90;;;;;;;20.74;83.30;100907.44;7384042;19;20035;-67
2022/09/02 09:31:56;;;;;;;8.43;1.25;;;;;;;20.83;82.13;100897.28;7388386;19;20503;-66
2022/09/02 09:34:23;;;;;;;7.30;1.70;;;;;;;20.83;82.54;100898.09;7382131;19;19999;-66
2022/09/02 09:36:54;;;;;;;12.50;1.90;;;;;;;20.85;82.72;100895.22;7383792;19;20050;-65
2022/09/02 09:39:33;;;;;;;8.52;1.75;;;;;;;20.87;83.02;100898.50;7380731;19;20026;-66
2022/09/02 09:42:12;;;;;;;15.20;2.00;;;;;;;20.89;83.24;100905.25;7388017;19;20010;-65
2022/09/02 09:44:44;;;;;;;12.73;1.63;;;;;;;20.98;82.08;100896.97;7384193;19;20058;-65
2022/09/02 09:47:18;;;;;;;7.55;1.40;;;;;;;21.07;81.41;100895.66;7386453;19;20016;-65
2022/09/02 09:49:49;;;;;;;8.43;1.63;;;;;;;21.09;81.17;100889.03;7377091;19;20101;-65
2022/09/02 09:52:26;;;;;;;8.20;1.30;;;;;;;21.11;81.66;100886.13;7385671;19;20024;-66
2022/09/02 09:55:10;;;;;;;7.90;1.42;;;;;;;21.13;81.90;100886.75;7379601;19;20034;-66
2022/09/02 09:57:41;;;;;;;9.02;1.50;;;;;;;21.20;80.82;100879.47;7387325;19;20116;-65
2022/09/02 10:00:27;;;;;;;11.15;1.80;;;;;;;21.25;81.13;100885.81;7385848;19;20014;-66
2022/09/02 10:02:59;;;;;;;10.05;1.40;;;;;;;21.34;80.77;100878.31;7386516;19;20014;-66
2022/09/02 10:05:31;;;;;;;8.52;2.53;;;;;;;21.39;80.73;100878.47;7382462;19;20010;-66
2022/09/02 10:08:01;;;;;;;;;;;;;;;21.43;80.67;100873.50;7378723;19;20029;-65
2022/09/02 10:11:05;;;;;;;7.93;1.02;;;;;;;21.50;79.25;100874.22;7383838;19;19922;-65
2022/09/02 10:13:34;;;;;;;9.88;2.03;;;;;;;21.54;78.99;100865.50;7381346;19;20441;-65
2022/09/02 10:16:24;;;;;;;6.47;1.10;;;;;;;21.56;78.81;100867.97;7383841;19;20014;-65
2022/09/02 10:18:59;;;;;;;6.10;1.17;;;;;;;21.60;79.13;100866.47;7386439;19;20054;-65
2022/09/02 10:21:52;;;;;;;6.65;2.70;;;;;;;21.62;78.55;100872.44;7383820;19;20398;-65
2022/09/02 10:24:51;;;;;;;3.72;1.02;;;;;;;21.68;77.35;100863.53;7383035;19;20086;-66
2022/09/02 10:28:02;;;;;;;7.57;1.50;;;;;;;21.73;76.65;100861.81;7386750;19;20407;-65
2022/09/02 10:30:41;;;;;;;6.85;1.63;;;;;;;21.77;77.34;100862.16;7384474;19;20018;-67
2022/09/02 10:33:17;;;;;;;5.72;1.63;;;;;;;21.79;77.53;100860.06;7384049;19;20018;-65
2022/09/02 10:35:54;;;;;;;9.73;1.02;;;;;;;21.89;75.26;100860.34;7379327;19;20021;-65
2022/09/02 10:38:45;;;;;;;6.55;0.95;;;;;;;21.91;74.57;100850.22;7383019;19;20567;-64
2022/09/02 10:41:30;;;;;;;6.80;1.20;;;;;;;21.95;73.94;100842.56;7377979;19;20615;-66
2022/09/02 10:44:11;;;;;;;5.75;1.20;;;;;;;21.96;74.85;100846.91;7381702;19;20609;-66
2022/09/02 10:46:59;;;;;;;4.18;1.48;;;;;;;21.98;75.64;100844.81;7383973;19;20152;-64
2022/09/02 10:49:40;;;;;;;6.00;1.20;;;;;;;22.00;74.55;100840.03;7374894;19;20022;-64
2022/09/02 10:52:31;;;;;;;3.95;1.20;;;;;;;22.04;73.75;100827.81;7381083;19;20516;-66
2022/09/02 10:55:13;;;;;;;8.43;1.10;;;;;;;22.06;73.67;100833.75;7381816;19;20010;-65
2022/09/02 10:57:45;;;;;;;4.65;1.33;;;;;;;22.12;74.87;100835.53;7381996;19;20044;-65
2022/09/02 11:00:16;;;;;;;8.50;2.13;;;;;;;22.16;74.50;100831.34;7378863;19;20022;-65
2022/09/02 11:02:52;;;;;;;9.70;5.32;;;;;;;22.18;76.42;100826.59;7382377;19;20029;-65
2022/09/02 11:05:43;;;;;;;5.75;1.30;;;;;;;22.21;74.75;100833.34;7375731;19;20035;-65
2022/09/02 11:08:13;;;;;;;4.32;0.82;;;;;;;22.24;72.79;100831.03;7383029;19;20019;-65
2022/09/02 11:10:54;;;;;;;6.18;1.33;;;;;;;22.28;72.41;100829.53;7378534;19;20011;-65
2022/09/02 11:13:39;;;;;;;4.75;1.15;;;;;;;22.37;73.56;100830.00;7377756;19;20014;-64
2022/09/02 11:16:26;;;;;;;7.75;1.13;;;;;;;22.50;69.55;100814.50;7383721;19;20531;-64
2022/09/02 11:19:15;;;;;;;5.95;1.25;;;;;;;22.56;69.74;100810.91;7384120;19;20026;-65
2022/09/02 11:22:01;;;;;;;9.82;1.17;;;;;;;22.58;70.09;100810.69;7380798;19;20014;-64
2022/09/02 11:24:38;;;;;;;2.20;0.80;;;;;;;22.66;70.18;100812.19;7378946;19;20021;-64
2022/09/02 11:27:22;;;;;;;4.68;0.80;;;;;;;22.72;70.13;100813.97;7382934;19;20018;-65
2022/09/02 11:30:17;;;;;;;5.78;0.80;;;;;;;22.77;69.96;100800.69;7380372;19;20025;-66
2022/09/02 11:32:50;;;;;;;6.38;1.05;;;;;;;22.80;70.38;100787.63;7384412;19;20006;-66
2022/09/02 11:35:23;;;;;;;2.88;0.88;;;;;;;22.86;69.11;100794.72;7376035;19;20022;-65
2022/09/02 11:38:00;;;;;;;4.13;0.82;;;;;;;22.98;66.71;100792.84;7382382;19;20007;-66
2022/09/02 11:40:43;;;;;;;4.13;0.70;;;;;;;23.04;65.44;100780.34;7380496;19;20047;-65
2022/09/02 11:43:20;;;;;;;;;;;;;;;23.05;65.73;100784.69;7383053;19;20010;-65
2022/09/02 11:46:04;;;;;;;5.80;0.98;;;;;;;23.05;65.56;100781.19;7382155;19;19943;-65
2022/09/02 11:48:51;;;;;;;6.97;1.13;;;;;;;23.01;66.64;100768.22;7381129;19;20360;-65
2022/09/02 11:51:40;;;;;;;4.22;0.63;;;;;;;22.99;63.36;100764.16;7372777;19;20015;-64
2022/09/02 11:54:10;;;;;;;5.80;0.80;;;;;;;23.02;62.12;100772.53;7381692;19;20033;-66